Buckhorn, California
Current Conditions -  °F | °C
As of 8:55 AM on Saturday 25 Oct 2014 (Local Time) from KPVF Reporting Station
Broken Clouds Broken Clouds  
Wind Chill: 50°   Ceiling: 3500
Heat Index: 50°   Visibility: 1.7mi
Dew Point: 48°   Wind: 12mph
Humidity: 94%   Direction: 210°SSW
Pressure: 30.06"   Gusts: 17mph
Location:  38.5644°N, 120.32°W
Report Text: KPVF 251555Z AUTO 21010G15KT 1 3/4SM BKN035 10/09 A3006 RMK AO1 P0007
Loading
Personal Weather Stations






























Interactive Weather Map
Tropical Storm Tracking
New forecast layout! Learn more

10-Day Weather Forecast

Advertisements
Track Severe Weather on mobile